Time;durP1;ratioP1;P1;durP2;ratioP2;P2;SDS_P1;SDS_P2;PMS_P1;PMS_P2;Temp;Humidity;BMP_temperature;BMP_pressure;BME280_temperature;BME280_humidity;BME280_pressure;Samples;Min_cycle;Max_cycle;Signal;HPM_P1;HPM_P2
2021/12/21 00:00:40;;;;;;;34.38;21.05;;;4.20;99.90;;;;;;2088663;28;20063;-76
2021/12/21 00:01:41;;;;;;;;;;;4.20;99.90;;;;;;2096691;28;20102;-75
2021/12/21 00:02:46;;;;;;;31.48;20.15;;;4.20;99.90;;;;;;2087997;28;19921;-79
2021/12/21 00:03:48;;;;;;;32.75;20.08;;;4.20;99.90;;;;;;2088675;28;20098;-77
2021/12/21 00:04:54;;;;;;;31.33;20.05;;;4.20;99.90;;;;;;2085647;28;20045;-75
2021/12/21 00:05:56;;;;;;;30.33;19.48;;;4.20;99.90;;;;;;2094190;28;20044;-76
2021/12/21 00:06:58;;;;;;;32.92;21.50;;;4.20;99.90;;;;;;2088623;28;20103;-76
2021/12/21 00:08:03;;;;;;;33.03;20.88;;;4.20;99.90;;;;;;2088330;28;20057;-76
2021/12/21 00:09:05;;;;;;;32.90;20.60;;;4.20;99.90;;;;;;2088509;28;20087;-76
2021/12/21 00:10:09;;;;;;;35.90;21.95;;;4.20;99.90;;;;;;2088873;28;20063;-76
2021/12/21 00:11:11;;;;;;;38.85;20.52;;;4.20;99.90;;;;;;2084797;28;20546;-77
2021/12/21 00:12:17;;;;;;;33.38;20.60;;;4.20;99.90;;;;;;2092641;28;20515;-78
2021/12/21 00:13:39;;;;;;;31.25;20.85;;;4.20;99.90;;;;;;2105017;28;20615;-77
2021/12/21 00:16:09;;;;;;;32.65;19.67;;;4.20;99.90;;;;;;2098504;28;20127;-76
2021/12/21 00:17:44;;;;;;;33.00;20.48;;;4.20;99.90;;;;;;2097760;28;20053;-76
2021/12/21 00:22:01;;;;;;;32.10;21.30;;;4.20;99.90;;;;;;2099195;28;20051;-76
2021/12/21 00:24:30;;;;;;;30.33;19.02;;;4.20;99.90;;;;;;2097011;28;20109;-76
2021/12/21 00:25:32;;;;;;;34.22;21.50;;;4.20;99.90;;;;;;2089557;28;20583;-76
2021/12/21 00:26:34;;;;;;;31.98;19.83;;;4.20;99.90;;;;;;2089737;28;20056;-76
2021/12/21 00:27:36;;;;;;;30.42;20.55;;;4.20;99.90;;;;;;2096279;28;20049;-75
2021/12/21 00:28:56;;;;;;;35.25;22.90;;;4.20;99.90;;;;;;2098277;28;20093;-78
2021/12/21 00:29:58;;;;;;;37.90;21.75;;;4.20;99.90;;;;;;2096378;28;20477;-76
2021/12/21 00:31:00;;;;;;;;;;;4.20;99.90;;;;;;2094294;28;20159;-76
2021/12/21 00:32:03;;;;;;;31.35;19.90;;;4.20;99.90;;;;;;2085413;28;20450;-75
2021/12/21 00:33:05;;;;;;;30.60;20.27;;;4.20;99.90;;;;;;2090233;28;20572;-76
2021/12/21 00:34:07;;;;;;;30.40;20.25;;;4.20;99.90;;;;;;2090044;28;20600;-75
2021/12/21 00:35:10;;;;;;;29.63;20.27;;;4.20;99.90;;;;;;2082447;28;20073;-75
2021/12/21 00:36:13;;;;;;;33.08;21.65;;;4.20;99.90;;;;;;2082301;28;20050;-75
2021/12/21 00:37:18;;;;;;;34.90;21.20;;;4.20;99.90;;;;;;2082535;28;20076;-77
2021/12/21 00:38:20;;;;;;;31.13;19.88;;;4.20;99.90;;;;;;2081640;28;20087;-75
2021/12/21 00:39:22;;;;;;;31.08;20.25;;;4.20;99.90;;;;;;2090371;28;20082;-75
2021/12/21 00:40:24;;;;;;;33.58;20.65;;;4.20;99.90;;;;;;2090706;28;20128;-75
2021/12/21 00:41:26;;;;;;;29.60;19.88;;;4.20;99.90;;;;;;2090386;28;20486;-74
2021/12/21 00:42:28;;;;;;;32.03;20.92;;;4.20;99.90;;;;;;2091714;28;20087;-75
2021/12/21 00:43:31;;;;;;;31.40;21.00;;;4.20;99.90;;;;;;2097665;28;20596;-76
2021/12/21 00:44:33;;;;;;;29.85;20.38;;;4.20;99.90;;;;;;2090086;28;20182;-75
2021/12/21 00:45:35;;;;;;;33.28;21.25;;;4.20;99.90;;;;;;2090184;28;20143;-78
2021/12/21 00:46:38;;;;;;;32.08;21.13;;;4.20;99.90;;;;;;2087278;28;20136;-76
2021/12/21 00:47:46;;;;;;;30.58;20.65;;;4.20;99.90;;;;;;2097588;28;20048;-77
2021/12/21 00:48:52;;;;;;;31.83;20.55;;;4.20;99.90;;;;;;2091269;28;20547;-75
2021/12/21 00:50:01;;;;;;;32.45;19.88;;;4.20;99.90;;;;;;2089811;28;20171;-75
2021/12/21 00:51:06;;;;;;;31.05;20.60;;;4.20;99.90;;;;;;2089714;28;20045;-74
2021/12/21 00:52:08;;;;;;;27.77;19.50;;;4.20;99.90;;;;;;2089532;28;20049;-77
2021/12/21 00:53:11;;;;;;;28.58;20.00;;;4.20;99.90;;;;;;2094467;28;20600;-75
2021/12/21 00:54:15;;;;;;;29.98;19.90;;;4.10;99.90;;;;;;2083370;28;20467;-75
2021/12/21 00:55:19;;;;;;;28.17;18.70;;;4.10;99.90;;;;;;2092099;28;20090;-76
2021/12/21 00:56:20;;;;;;;31.40;20.48;;;4.10;99.90;;;;;;2085385;28;20079;-75
2021/12/21 00:57:22;;;;;;;30.15;19.75;;;4.10;99.90;;;;;;2088714;28;20396;-76
2021/12/21 00:58:24;;;;;;;28.55;18.58;;;4.10;99.90;;;;;;2086264;28;20569;-78
2021/12/21 00:59:26;;;;;;;27.52;18.63;;;4.10;99.90;;;;;;2090459;28;20191;-75
2021/12/21 01:00:28;;;;;;;27.58;18.48;;;4.10;99.90;;;;;;2089363;28;20049;-75
2021/12/21 01:01:31;;;;;;;25.25;17.33;;;4.10;99.90;;;;;;2089629;28;20041;-76
2021/12/21 01:02:34;;;;;;;29.02;19.38;;;4.10;99.90;;;;;;2098054;28;20154;-75
2021/12/21 01:03:43;;;;;;;30.10;18.60;;;4.10;99.90;;;;;;2097861;28;20526;-77
2021/12/21 01:04:48;;;;;;;27.42;18.83;;;4.10;99.90;;;;;;2090780;28;20053;-77
2021/12/21 01:06:05;;;;;;;26.52;17.77;;;4.10;99.90;;;;;;2097829;28;20052;-75
2021/12/21 01:07:53;;;;;;;33.35;18.58;;;4.10;99.90;;;;;;2097775;28;20572;-76
2021/12/21 01:08:44;;;;;;;27.48;18.73;;;4.10;99.90;;;;;;2089490;28;20503;-76
2021/12/21 01:11:56;;;;;;;28.00;18.38;;;4.10;99.90;;;;;;2090123;28;20515;-76
2021/12/21 01:13:51;;;;;;;26.17;17.65;;;4.10;99.90;;;;;;2089673;28;20057;-76
2021/12/21 01:18:17;;;;;;;27.15;17.15;;;4.10;99.90;;;;;;2088864;28;20516;-76
2021/12/21 01:19:29;;;;;;;27.02;17.25;;;4.10;99.90;;;;;;2097514;28;20060;-76
2021/12/21 01:21:59;;;;;;;24.63;16.65;;;4.10;99.90;;;;;;2089225;28;20094;-75
2021/12/21 01:25:22;;;;;;;25.40;15.75;;;4.10;99.90;;;;;;2090020;28;19964;-76
2021/12/21 01:26:45;;;;;;;24.40;15.38;;;4.10;99.90;;;;;;2095634;28;20101;-78
2021/12/21 01:29:38;;;;;;;25.98;16.88;;;4.10;99.90;;;;;;2103241;28;20143;-75
2021/12/21 01:30:45;;;;;;;26.65;16.95;;;4.10;99.90;;;;;;2098154;28;20056;-77
2021/12/21 01:35:34;;;;;;;26.77;16.88;;;4.10;99.90;;;;;;2095987;28;20159;-76
2021/12/21 01:36:48;;;;;;;25.23;15.60;;;4.10;99.90;;;;;;2097455;28;20538;-75
2021/12/21 01:38:00;;;;;;;26.50;15.68;;;4.00;99.90;;;;;;2091105;28;20049;-76
2021/12/21 01:43:52;;;;;;;22.40;14.55;;;4.10;99.90;;;;;;2096856;28;20094;-76
2021/12/21 01:50:16;;;;;;;24.67;15.55;;;4.10;99.90;;;;;;2090483;28;20045;-74
2021/12/21 01:51:19;;;;;;;26.58;16.17;;;4.10;99.90;;;;;;2096393;28;20143;-75
2021/12/21 01:52:24;;;;;;;25.27;15.18;;;4.10;99.90;;;;;;2080821;28;20095;-75
2021/12/21 01:53:26;;;;;;;28.50;15.95;;;4.10;99.90;;;;;;2082314;28;20088;-76
2021/12/21 01:54:28;;;;;;;23.88;15.20;;;4.10;99.90;;;;;;2089326;28;20486;-75
2021/12/21 01:55:30;;;;;;;23.55;14.82;;;4.10;99.90;;;;;;2081068;28;20631;-76
2021/12/21 01:56:32;;;;;;;25.75;14.65;;;4.10;99.90;;;;;;2089342;28;20072;-76
2021/12/21 01:57:34;;;;;;;26.20;15.55;;;4.10;99.90;;;;;;2081036;28;20046;-75
2021/12/21 01:58:39;;;;;;;25.45;15.82;;;4.10;99.90;;;;;;2081027;28;20140;-77
2021/12/21 01:59:43;;;;;;;24.65;14.93;;;4.10;99.90;;;;;;2089299;28;20086;-78
2021/12/21 02:00:47;;;;;;;26.60;15.50;;;4.10;99.90;;;;;;2084256;28;20189;-76
2021/12/21 02:01:49;;;;;;;24.55;15.38;;;4.10;99.90;;;;;;2086876;28;20041;-79
2021/12/21 02:02:51;;;;;;;24.27;14.60;;;4.20;99.90;;;;;;2089078;28;20151;-77
2021/12/21 02:03:54;;;;;;;;;;;4.10;99.90;;;;;;2081146;28;20058;-75
2021/12/21 02:04:56;;;;;;;26.30;14.68;;;4.10;99.90;;;;;;2081145;28;19928;-74
2021/12/21 02:05:58;;;;;;;24.98;15.88;;;4.10;99.90;;;;;;2081055;28;20614;-76
2021/12/21 02:07:00;;;;;;;24.48;15.30;;;4.00;99.90;;;;;;2089286;28;20082;-76
2021/12/21 02:08:02;;;;;;;26.60;15.75;;;4.00;99.90;;;;;;2080925;28;20053;-76
2021/12/21 02:09:04;;;;;;;26.45;16.05;;;3.90;99.90;;;;;;2092969;28;20653;-77
2021/12/21 02:10:08;;;;;;;24.98;15.55;;;3.80;99.90;;;;;;2090109;28;20132;-76
2021/12/21 02:11:10;;;;;;;26.60;15.85;;;3.80;99.90;;;;;;2096958;28;20572;-76
2021/12/21 02:12:17;;;;;;;24.67;15.60;;;3.70;99.90;;;;;;2081116;28;20497;-76
2021/12/21 02:13:19;;;;;;;22.33;14.05;;;3.60;99.90;;;;;;2089109;28;20049;-74
2021/12/21 02:14:21;;;;;;;25.15;15.60;;;3.50;99.90;;;;;;2088998;28;20095;-75
2021/12/21 02:15:25;;;;;;;26.35;15.98;;;3.50;99.90;;;;;;2088932;28;20049;-76
2021/12/21 02:16:36;;;;;;;26.52;15.85;;;3.40;99.90;;;;;;2089066;28;20128;-76
2021/12/21 02:19:03;;;;;;;24.80;15.82;;;3.30;99.90;;;;;;2096188;28;20049;-77
2021/12/21 02:21:43;;;;;;;25.05;15.45;;;3.20;99.90;;;;;;2094774;28;20179;-76
2021/12/21 02:22:52;;;;;;;26.70;16.17;;;3.10;99.90;;;;;;2092346;28;20102;-76
2021/12/21 02:24:00;;;;;;;26.88;15.50;;;3.10;99.90;;;;;;2087834;28;20045;-75
2021/12/21 02:25:58;;;;;;;25.50;15.25;;;3.00;99.90;;;;;;2081978;28;20132;-77
2021/12/21 02:27:53;;;;;;;24.77;14.70;;;3.00;99.90;;;;;;2081698;28;20429;-76
2021/12/21 02:30:19;;;;;;;30.33;15.80;;;2.80;99.90;;;;;;2085822;28;20103;-76
2021/12/21 02:31:20;;;;;;;24.65;14.77;;;2.80;99.90;;;;;;2086695;28;20048;-76
2021/12/21 02:32:23;;;;;;;26.92;15.98;;;2.70;99.90;;;;;;2072488;28;20475;-76
2021/12/21 02:33:26;;;;;;;24.67;15.45;;;2.60;99.90;;;;;;2072577;28;20057;-75
2021/12/21 02:34:28;;;;;;;25.45;14.77;;;2.50;99.90;;;;;;2073173;28;20091;-76
2021/12/21 02:35:30;;;;;;;;;;;2.40;99.90;;;;;;2072396;28;20054;-76
2021/12/21 02:36:32;;;;;;;26.55;14.45;;;2.40;99.90;;;;;;2084438;28;19922;-75
2021/12/21 02:37:34;;;;;;;25.38;15.40;;;2.30;99.90;;;;;;2084547;28;20109;-75
2021/12/21 02:38:36;;;;;;;27.40;14.85;;;2.20;99.90;;;;;;2080998;28;20045;-74
2021/12/21 02:39:38;;;;;;;25.73;14.10;;;2.10;99.90;;;;;;2080349;28;20144;-75
2021/12/21 02:40:40;;;;;;;24.33;14.30;;;2.00;99.90;;;;;;2081219;28;20045;-76
2021/12/21 02:41:44;;;;;;;26.45;15.85;;;1.90;99.90;;;;;;2078878;28;20045;-75
2021/12/21 02:42:45;;;;;;;23.88;14.13;;;1.90;99.90;;;;;;2080759;28;20041;-75
2021/12/21 02:43:47;;;;;;;26.75;15.45;;;1.80;99.90;;;;;;2088902;28;20080;-76
2021/12/21 02:44:53;;;;;;;25.92;15.30;;;1.70;99.90;;;;;;2088872;28;20076;-78
2021/12/21 02:45:55;;;;;;;25.15;14.95;;;1.70;99.90;;;;;;2097514;28;20048;-75
2021/12/21 02:46:57;;;;;;;;;;;1.60;99.90;;;;;;2097182;28;20044;-76
2021/12/21 02:47:59;;;;;;;22.98;14.20;;;1.50;99.90;;;;;;2087423;28;19921;-75
2021/12/21 02:49:01;;;;;;;27.20;15.27;;;1.40;99.90;;;;;;2088054;28;20061;-74
2021/12/21 02:50:05;;;;;;;27.00;14.95;;;1.40;99.90;;;;;;2072703;28;20600;-76
2021/12/21 02:51:07;;;;;;;25.45;14.75;;;1.40;99.90;;;;;;2072431;28;20046;-76
2021/12/21 02:52:08;;;;;;;27.65;15.70;;;1.30;99.90;;;;;;2072388;28;20631;-76
2021/12/21 02:53:10;;;;;;;26.20;14.98;;;1.30;99.90;;;;;;2072588;28;20095;-76
2021/12/21 02:54:14;;;;;;;26.08;14.90;;;1.20;99.90;;;;;;2072649;28;20195;-76
2021/12/21 02:55:16;;;;;;;27.45;15.77;;;1.20;99.90;;;;;;2072799;28;20046;-75
2021/12/21 02:56:18;;;;;;;26.00;15.02;;;1.10;99.90;;;;;;2079776;28;20057;-77
2021/12/21 02:57:20;;;;;;;28.08;15.32;;;1.10;99.90;;;;;;2095401;28;20097;-76
2021/12/21 02:58:22;;;;;;;28.67;16.92;;;1.00;99.90;;;;;;2090092;28;20053;-75
2021/12/21 02:59:24;;;;;;;25.85;14.95;;;0.90;99.90;;;;;;2072671;28;20046;-79
2021/12/21 03:00:28;;;;;;;26.25;15.00;;;0.90;99.90;;;;;;2080197;28;20049;-76
2021/12/21 03:01:30;;;;;;;27.73;15.00;;;0.90;99.90;;;;;;2087438;28;20844;-76
2021/12/21 03:02:33;;;;;;;27.40;16.58;;;0.80;99.90;;;;;;2080451;28;20191;-77
2021/12/21 03:03:35;;;;;;;28.42;14.90;;;0.80;99.90;;;;;;2080279;28;20436;-77
2021/12/21 03:04:37;;;;;;;32.17;16.33;;;0.80;99.90;;;;;;2080282;28;20049;-76
2021/12/21 03:05:44;;;;;;;28.17;15.63;;;0.70;99.90;;;;;;2072554;28;20057;-76
2021/12/21 03:08:17;;;;;;;27.55;15.38;;;0.70;99.90;;;;;;2080693;28;20256;-77
2021/12/21 03:10:26;;;;;;;28.27;15.40;;;0.60;99.90;;;;;;2083215;28;20072;-76
2021/12/21 03:11:48;;;;;;;26.85;15.90;;;0.50;99.90;;;;;;2083963;28;20050;-76
2021/12/21 03:14:11;;;;;;;29.50;15.68;;;0.40;99.90;;;;;;2081129;28;20168;-74
2021/12/21 03:15:13;;;;;;;30.02;15.38;;;0.40;99.90;;;;;;2080360;28;20100;-75
2021/12/21 03:16:16;;;;;;;28.70;15.75;;;0.30;99.90;;;;;;2072610;28;20064;-76
2021/12/21 03:17:18;;;;;;;30.00;15.88;;;0.30;99.90;;;;;;2080809;28;20126;-75
2021/12/21 03:18:20;;;;;;;29.08;16.27;;;0.30;99.90;;;;;;2084881;28;20070;-74
2021/12/21 03:19:22;;;;;;;27.60;15.35;;;0.30;99.90;;;;;;2082573;28;20588;-74
2021/12/21 03:20:25;;;;;;;29.60;16.20;;;0.30;99.90;;;;;;2094752;28;20087;-75
2021/12/21 03:21:28;;;;;;;31.25;16.92;;;0.30;99.90;;;;;;2096741;28;20070;-80
2021/12/21 03:22:30;;;;;;;31.27;16.75;;;0.30;99.90;;;;;;2081165;28;20053;-79
2021/12/21 03:23:32;;;;;;;31.98;16.90;;;0.30;99.90;;;;;;2089262;28;20569;-79
2021/12/21 03:24:34;;;;;;;33.63;17.48;;;0.30;99.90;;;;;;2089191;28;20452;-75
2021/12/21 03:25:36;;;;;;;33.67;17.95;;;0.30;99.90;;;;;;2089335;28;20098;-76
2021/12/21 03:26:38;;;;;;;34.05;17.92;;;0.30;99.90;;;;;;2095936;28;20171;-75
2021/12/21 03:27:40;;;;;;;29.50;16.98;;;0.20;99.90;;;;;;2083811;28;20432;-76
2021/12/21 03:28:42;;;;;;;30.52;16.58;;;0.20;99.90;;;;;;2088670;28;20049;-80
2021/12/21 03:29:44;;;;;;;33.20;17.35;;;0.20;99.90;;;;;;2085912;28;20186;-76
2021/12/21 03:30:46;;;;;;;35.17;18.08;;;0.20;99.90;;;;;;2088582;28;20098;-75
2021/12/21 03:31:48;;;;;;;31.35;16.60;;;0.20;99.90;;;;;;2088759;28;20052;-80
2021/12/21 03:32:50;;;;;;;34.10;17.00;;;0.10;99.90;;;;;;2089232;28;20121;-77
2021/12/21 03:33:52;;;;;;;;;;;0.10;99.90;;;;;;2089207;28;20041;-75
2021/12/21 03:34:54;;;;;;;30.80;16.33;;;0.10;99.90;;;;;;2080405;28;19953;-76
2021/12/21 03:35:56;;;;;;;32.88;16.17;;;0.10;99.90;;;;;;2077209;28;20091;-76
2021/12/21 03:36:57;;;;;;;32.53;16.85;;;0.00;99.90;;;;;;2075495;28;20099;-77
2021/12/21 03:37:59;;;;;;;36.58;17.77;;;0.00;99.90;;;;;;2076864;28;20053;-76
2021/12/21 03:39:08;;;;;;;37.20;17.27;;;-0.10;99.90;;;;;;2078559;28;20767;-76
2021/12/21 03:40:10;;;;;;;34.03;17.40;;;-0.10;99.90;;;;;;2078957;28;20107;-75
2021/12/21 03:41:15;;;;;;;38.45;18.02;;;-0.10;99.90;;;;;;2078393;28;20124;-75
2021/12/21 03:42:17;;;;;;;34.35;17.27;;;-0.10;99.90;;;;;;2080357;28;20128;-76
2021/12/21 03:43:19;;;;;;;35.75;19.13;;;-0.10;99.90;;;;;;2081849;28;20040;-76
2021/12/21 03:44:22;;;;;;;51.25;30.80;;;-0.20;99.90;;;;;;2089479;28;20045;-76
2021/12/21 03:45:24;;;;;;;43.63;23.90;;;-0.20;99.90;;;;;;2086720;28;20584;-77
2021/12/21 03:46:27;;;;;;;37.20;21.27;;;-0.20;99.90;;;;;;2073832;28;20078;-75
2021/12/21 03:47:31;;;;;;;42.17;19.48;;;-0.20;99.90;;;;;;2073996;28;20467;-76
2021/12/21 03:48:33;;;;;;;34.35;18.35;;;-0.20;99.90;;;;;;2074155;28;20077;-76
2021/12/21 03:50:42;;;;;;;35.80;18.65;;;-0.20;99.90;;;;;;2080716;28;20087;-75
2021/12/21 03:51:44;;;;;;;35.08;19.10;;;-0.30;99.90;;;;;;2083595;28;20085;-75
2021/12/21 03:52:46;;;;;;;34.15;19.00;;;-0.30;99.90;;;;;;2073916;28;20505;-76
2021/12/21 03:53:49;;;;;;;;;;;-0.30;99.90;;;;;;2082555;28;20524;-75
2021/12/21 03:54:58;;;;;;;39.47;18.25;;;-0.30;99.90;;;;;;2081928;28;19925;-75
2021/12/21 03:56:38;;;;;;;36.67;18.27;;;-0.30;99.90;;;;;;2083170;28;20053;-76
2021/12/21 03:57:29;;;;;;;35.72;17.05;;;-0.40;99.90;;;;;;2086049;28;20524;-76
2021/12/21 03:58:31;;;;;;;29.45;15.90;;;-0.40;99.90;;;;;;2089800;28;20593;-74
2021/12/21 03:59:33;;;;;;;35.05;18.25;;;-0.40;99.90;;;;;;2089966;28;20376;-75
2021/12/21 04:00:35;;;;;;;41.70;18.67;;;-0.40;99.90;;;;;;2090032;28;20057;-76
2021/12/21 04:01:37;;;;;;;37.42;18.35;;;-0.40;99.90;;;;;;2081778;28;20045;-76
2021/12/21 04:02:39;;;;;;;37.75;18.83;;;-0.40;99.90;;;;;;2088244;28;20049;-75
2021/12/21 04:03:41;;;;;;;;;;;-0.40;99.90;;;;;;2090638;28;20504;-77
2021/12/21 04:04:44;;;;;;;40.53;19.75;;;-0.40;99.90;;;;;;2098441;28;19920;-75
2021/12/21 04:05:46;;;;;;;39.78;18.35;;;-0.40;99.90;;;;;;2097679;28;20090;-75
2021/12/21 04:06:49;;;;;;;35.72;18.30;;;-0.40;99.90;;;;;;2081797;28;20112;-74
2021/12/21 04:07:51;;;;;;;35.17;18.23;;;-0.40;99.90;;;;;;2089968;28;20127;-76
2021/12/21 04:08:52;;;;;;;43.33;19.55;;;-0.40;99.90;;;;;;2089854;28;20477;-75
2021/12/21 04:09:55;;;;;;;44.45;20.58;;;-0.40;99.90;;;;;;2090200;28;20054;-75
2021/12/21 04:10:57;;;;;;;41.30;19.35;;;-0.50;99.90;;;;;;2090007;28;20135;-74
2021/12/21 04:12:00;;;;;;;41.92;20.77;;;-0.50;99.90;;;;;;2086843;28;20124;-74
2021/12/21 04:13:02;;;;;;;41.08;19.58;;;-0.40;99.90;;;;;;2086514;28;20053;-74
2021/12/21 04:14:05;;;;;;;40.45;20.00;;;-0.50;99.90;;;;;;2082138;28;20829;-74
2021/12/21 04:15:07;;;;;;;39.33;20.08;;;-0.50;99.90;;;;;;2090288;28;20072;-74
2021/12/21 04:16:09;;;;;;;38.58;19.33;;;-0.50;99.90;;;;;;2090499;28;20227;-74
2021/12/21 04:17:18;;;;;;;39.70;20.25;;;-0.50;99.90;;;;;;2090608;28;20079;-74
2021/12/21 04:18:23;;;;;;;39.38;19.50;;;-0.50;99.90;;;;;;2082425;28;20064;-74
2021/12/21 04:19:25;;;;;;;39.83;20.58;;;-0.50;99.90;;;;;;2074982;28;20639;-73
2021/12/21 04:20:27;;;;;;;46.60;20.60;;;-0.50;99.90;;;;;;2079505;28;20086;-73
2021/12/21 04:21:28;;;;;;;43.40;20.70;;;-0.50;99.90;;;;;;2080958;28;20049;-73
2021/12/21 04:22:30;;;;;;;48.78;23.20;;;-0.60;99.90;;;;;;2080807;28;20049;-73
2021/12/21 04:23:32;;;;;;;39.08;20.77;;;-0.50;99.90;;;;;;2090361;28;20131;-73
2021/12/21 04:24:34;;;;;;;;;;;-0.50;99.90;;;;;;2082240;28;20487;-73
2021/12/21 04:25:36;;;;;;;42.83;20.58;;;-0.50;99.90;;;;;;2081846;28;20589;-75
2021/12/21 04:26:38;;;;;;;47.22;21.45;;;-0.50;99.90;;;;;;2081977;28;20117;-73
2021/12/21 04:27:40;;;;;;;;;;;-0.40;99.90;;;;;;2090226;28;20049;-73
2021/12/21 04:28:43;;;;;;;41.92;19.67;;;-0.40;99.90;;;;;;2090131;28;20000;-75
2021/12/21 04:29:45;;;;;;;42.80;21.20;;;-0.40;99.90;;;;;;2095294;28;20175;-72
2021/12/21 04:30:47;;;;;;;;;;;-0.30;99.90;;;;;;2090048;28;20131;-74
2021/12/21 04:31:49;;;;;;;38.13;18.77;;;-0.30;99.90;;;;;;2082943;28;19920;-73
2021/12/21 04:32:51;;;;;;;43.92;21.02;;;-0.30;99.90;;;;;;2089686;28;20596;-73
2021/12/21 04:33:53;;;;;;;;;;;-0.30;99.90;;;;;;2090209;28;20049;-73
2021/12/21 04:34:55;;;;;;;41.85;20.38;;;-0.30;99.90;;;;;;2089821;28;20118;-73
2021/12/21 04:35:57;;;;;;;46.38;21.98;;;-0.30;99.90;;;;;;2096357;28;20568;-73
2021/12/21 04:36:59;;;;;;;;;;;-0.30;99.90;;;;;;2089494;28;20060;-73
2021/12/21 04:38:13;;;;;;;42.80;21.75;;;-0.30;99.90;;;;;;2081474;28;19961;-73
2021/12/21 04:39:26;;;;;;;46.53;22.30;;;-0.30;99.90;;;;;;2081247;28;20057;-71
2021/12/21 04:40:42;;;;;;;47.88;21.92;;;-0.30;99.90;;;;;;2074913;28;20077;-73
2021/12/21 04:41:44;;;;;;;45.10;22.30;;;-0.20;99.90;;;;;;2075043;28;20050;-72
2021/12/21 04:42:57;;;;;;;42.80;22.33;;;-0.20;99.90;;;;;;2074720;28;20528;-73
2021/12/21 04:43:59;;;;;;;50.13;23.48;;;-0.20;99.90;;;;;;2075112;28;20041;-73
2021/12/21 04:45:01;;;;;;;51.75;24.92;;;-0.20;99.90;;;;;;2073808;28;20793;-71
2021/12/21 04:46:04;;;;;;;48.65;24.52;;;-0.20;99.90;;;;;;2076920;28;20701;-72
2021/12/21 04:47:06;;;;;;;46.53;22.77;;;-0.20;99.90;;;;;;2081703;28;20081;-73
2021/12/21 04:48:07;;;;;;;;;;;-0.20;99.90;;;;;;2081947;28;20080;-72
2021/12/21 04:49:09;;;;;;;48.85;22.48;;;-0.20;99.90;;;;;;2081633;28;19924;-72
2021/12/21 04:50:12;;;;;;;47.47;23.95;;;-0.20;99.90;;;;;;2089785;28;20112;-73
2021/12/21 04:51:14;;;;;;;51.13;24.73;;;-0.30;99.90;;;;;;2082911;28;20049;-72
2021/12/21 04:52:16;;;;;;;45.90;23.45;;;-0.30;99.90;;;;;;2079562;28;20522;-73
2021/12/21 04:53:21;;;;;;;46.30;23.55;;;-0.30;99.90;;;;;;2081217;28;20081;-72
2021/12/21 04:54:23;;;;;;;52.03;24.08;;;-0.30;99.90;;;;;;2081889;28;20049;-72
2021/12/21 04:55:24;;;;;;;45.75;23.85;;;-0.30;99.90;;;;;;2081370;28;20493;-72
2021/12/21 04:56:26;;;;;;;44.35;23.65;;;-0.30;99.90;;;;;;2079481;28;20108;-72
2021/12/21 04:57:28;;;;;;;48.30;25.05;;;-0.30;99.90;;;;;;2081613;28;20083;-72
2021/12/21 04:58:30;;;;;;;48.25;24.63;;;-0.30;99.90;;;;;;2075411;28;20058;-72
2021/12/21 04:59:32;;;;;;;;;;;-0.20;99.90;;;;;;2073679;28;20108;-72
2021/12/21 05:00:35;;;;;;;47.20;23.05;;;-0.20;99.90;;;;;;2073279;28;20004;-72
2021/12/21 05:01:37;;;;;;;47.83;24.00;;;-0.20;99.90;;;;;;2072032;28;20046;-73
2021/12/21 05:02:39;;;;;;;48.03;24.40;;;-0.20;99.90;;;;;;2080760;28;20050;-71
2021/12/21 05:03:41;;;;;;;47.85;24.95;;;-0.30;99.90;;;;;;2073539;28;20122;-71
2021/12/21 05:04:43;;;;;;;;;;;-0.30;99.90;;;;;;2089919;28;20474;-74
2021/12/21 05:05:45;;;;;;;51.30;21.75;;;-0.30;99.90;;;;;;2090028;28;19924;-72
2021/12/21 05:06:47;;;;;;;48.45;24.08;;;-0.30;99.90;;;;;;2097774;28;20048;-72
2021/12/21 05:07:55;;;;;;;48.05;24.52;;;-0.30;99.90;;;;;;2095636;28;20052;-72
2021/12/21 05:09:13;;;;;;;49.83;23.83;;;-0.30;99.90;;;;;;2081530;28;20570;-72
2021/12/21 05:10:15;;;;;;;56.15;25.33;;;-0.40;99.90;;;;;;2083295;28;20049;-72
2021/12/21 05:11:19;;;;;;;50.83;25.42;;;-0.30;99.90;;;;;;2081390;28;20049;-72
2021/12/21 05:12:21;;;;;;;50.20;24.23;;;-0.40;99.90;;;;;;2073339;28;20073;-73
2021/12/21 05:13:27;;;;;;;49.78;24.52;;;-0.40;99.90;;;;;;2073143;28;20054;-72
2021/12/21 05:14:29;;;;;;;50.22;25.85;;;-0.40;99.90;;;;;;2073717;28;20572;-71
2021/12/21 05:15:31;;;;;;;69.45;26.42;;;-0.30;99.90;;;;;;2072994;28;20054;-72
2021/12/21 05:16:33;;;;;;;54.85;26.73;;;-0.30;99.90;;;;;;2073438;28;20076;-72
2021/12/21 05:17:35;;;;;;;48.72;24.85;;;-0.30;99.90;;;;;;2077278;28;20974;-72
2021/12/21 05:18:37;;;;;;;50.42;25.02;;;-0.30;99.90;;;;;;2088002;28;20106;-71
2021/12/21 05:19:39;;;;;;;53.65;27.40;;;-0.30;99.90;;;;;;2081215;28;20736;-72
2021/12/21 05:20:42;;;;;;;55.75;28.90;;;-0.30;99.90;;;;;;2089479;28;20052;-72
2021/12/21 05:21:44;;;;;;;55.92;27.80;;;-0.20;99.90;;;;;;2089223;28;20462;-71
2021/12/21 05:22:48;;;;;;;53.47;26.80;;;-0.20;99.90;;;;;;2081032;28;20558;-72
2021/12/21 05:23:50;;;;;;;59.13;27.15;;;-0.10;99.90;;;;;;2081751;28;20045;-72
2021/12/21 05:24:52;;;;;;;51.25;27.98;;;-0.10;99.90;;;;;;2081337;28;20080;-72
2021/12/21 05:25:54;;;;;;;;;;;-0.10;99.90;;;;;;2078722;28;20045;-72
2021/12/21 05:26:56;;;;;;;49.50;24.88;;;-0.10;99.90;;;;;;2088596;28;19925;-72
2021/12/21 05:27:58;;;;;;;;;;;-0.10;99.90;;;;;;2081880;28;20510;-72
2021/12/21 05:29:00;;;;;;;55.08;26.13;;;-0.10;99.90;;;;;;2089140;28;20189;-72
2021/12/21 05:30:03;;;;;;;52.58;26.23;;;-0.10;99.90;;;;;;2081092;28;20137;-71
2021/12/21 05:31:05;;;;;;;59.58;27.48;;;-0.10;99.90;;;;;;2081104;28;20164;-72
2021/12/21 05:32:07;;;;;;;56.53;28.73;;;-0.10;99.90;;;;;;2081102;28;20475;-72
2021/12/21 05:33:09;;;;;;;;;;;0.00;99.90;;;;;;2081628;28;20186;-72
2021/12/21 05:34:11;;;;;;;54.28;26.50;;;0.00;99.90;;;;;;2081007;28;19924;-72
2021/12/21 05:35:13;;;;;;;59.55;28.35;;;0.00;99.90;;;;;;2075435;28;20152;-72
2021/12/21 05:36:15;;;;;;;59.03;28.70;;;0.00;99.90;;;;;;2076646;28;20045;-74
2021/12/21 05:37:16;;;;;;;56.78;28.45;;;0.00;99.90;;;;;;2077504;28;20132;-71
2021/12/21 05:38:27;;;;;;;55.05;28.98;;;0.00;99.90;;;;;;2073182;28;20507;-73
2021/12/21 05:39:38;;;;;;;64.68;29.85;;;0.00;99.90;;;;;;2085112;28;20041;-73
2021/12/21 05:40:44;;;;;;;70.45;30.02;;;-0.10;99.90;;;;;;2081155;28;20053;-72
2021/12/21 05:41:53;;;;;;;59.85;30.33;;;-0.10;99.90;;;;;;2081303;28;20132;-73
2021/12/21 05:42:54;;;;;;;62.95;30.65;;;-0.10;99.90;;;;;;2074080;28;20049;-72
2021/12/21 05:43:56;;;;;;;58.13;30.60;;;-0.20;99.90;;;;;;2075609;28;20564;-72
2021/12/21 05:44:58;;;;;;;51.75;29.58;;;-0.20;99.90;;;;;;2080998;28;20049;-72
2021/12/21 05:46:00;;;;;;;;;;;-0.20;99.90;;;;;;2085876;28;20048;-72
2021/12/21 05:47:02;;;;;;;54.47;26.98;;;-0.30;99.90;;;;;;2097807;28;20019;-73
2021/12/21 05:48:04;;;;;;;;;;;-0.30;99.90;;;;;;2089445;28;20056;-72
2021/12/21 05:49:07;;;;;;;51.55;25.00;;;-0.30;99.90;;;;;;2081397;28;20055;-71
2021/12/21 05:50:17;;;;;;;51.10;25.90;;;-0.40;99.90;;;;;;2081661;28;20049;-72
2021/12/21 05:51:20;;;;;;;52.75;26.83;;;-0.40;99.90;;;;;;2089304;28;20122;-73
2021/12/21 05:52:22;;;;;;;52.53;27.90;;;-0.40;99.90;;;;;;2087389;28;20120;-72
2021/12/21 05:53:24;;;;;;;65.15;29.08;;;-0.50;99.90;;;;;;2081403;28;20142;-73
2021/12/21 05:54:26;;;;;;;60.63;29.25;;;-0.50;99.90;;;;;;2088614;28;20049;-73
2021/12/21 05:55:33;;;;;;;65.15;31.88;;;-0.60;99.90;;;;;;2089021;28;20049;-73
2021/12/21 05:56:35;;;;;;;;;;;-0.60;99.90;;;;;;2083996;28;20096;-73
2021/12/21 05:57:37;;;;;;;63.78;28.77;;;-0.60;99.90;;;;;;2080848;28;20011;-73
2021/12/21 05:58:39;;;;;;;64.13;30.58;;;-0.60;99.90;;;;;;2088785;28;20425;-72
2021/12/21 05:59:41;;;;;;;66.32;29.95;;;-0.70;99.90;;;;;;2091435;28;20127;-72
2021/12/21 06:00:43;;;;;;;62.40;30.02;;;-0.70;99.90;;;;;;2076442;28;20083;-73
2021/12/21 06:01:46;;;;;;;64.80;29.88;;;-0.70;99.90;;;;;;2087379;28;20041;-73
2021/12/21 06:02:49;;;;;;;57.88;28.02;;;-0.70;99.90;;;;;;2085432;28;20049;-72
2021/12/21 06:03:51;;;;;;;64.43;29.60;;;-0.70;99.90;;;;;;2076069;28;20057;-72
2021/12/21 06:04:53;;;;;;;61.92;31.83;;;-0.70;99.90;;;;;;2088814;28;20045;-72
2021/12/21 06:05:55;;;;;;;59.75;29.17;;;-0.70;99.90;;;;;;2080735;28;20098;-72
2021/12/21 06:06:56;;;;;;;58.15;28.85;;;-0.80;99.90;;;;;;2089008;28;20512;-72
2021/12/21 06:07:58;;;;;;;56.85;29.10;;;-0.80;99.90;;;;;;2084929;28;20161;-73
2021/12/21 06:09:05;;;;;;;59.45;29.00;;;-0.80;99.90;;;;;;2077241;28;20542;-72
2021/12/21 06:10:15;;;;;;;55.35;28.77;;;-0.80;99.90;;;;;;2086807;28;20060;-74
2021/12/21 06:11:19;;;;;;;53.47;27.98;;;-0.80;99.90;;;;;;2097098;28;20170;-72
2021/12/21 06:26:19;;;;;;;53.78;28.08;;;-0.60;99.90;;;;;;2055937;28;20085;-73